sensor_id;sensor_type;location;lat;lon;timestamp;P1;durP1;ratioP1;P2;durP2;ratioP2
66118;SDS011;52912;48.564;9.302;2022-11-20T00:01:26;4.32;;;2.42;;
66118;SDS011;52912;48.564;9.302;2022-11-20T00:03:52;4.43;;;2.10;;
66118;SDS011;52912;48.564;9.302;2022-11-20T00:06:19;4.57;;;2.45;;
66118;SDS011;52912;48.564;9.302;2022-11-20T00:08:46;3.33;;;1.95;;
66118;SDS011;52912;48.564;9.302;2022-11-20T00:11:12;2.78;;;1.80;;
66118;SDS011;52912;48.564;9.302;2022-11-20T00:13:39;4.50;;;2.30;;
66118;SDS011;52912;48.564;9.302;2022-11-20T00:16:05;3.50;;;2.22;;
66118;SDS011;52912;48.564;9.302;2022-11-20T00:18:32;5.93;;;2.25;;
66118;SDS011;52912;48.564;9.302;2022-11-20T00:21:02;3.78;;;2.22;;
66118;SDS011;52912;48.564;9.302;2022-11-20T00:23:28;3.70;;;2.17;;
66118;SDS011;52912;48.564;9.302;2022-11-20T00:25:55;3.08;;;2.08;;
66118;SDS011;52912;48.564;9.302;2022-11-20T00:28:20;3.78;;;2.03;;
66118;SDS011;52912;48.564;9.302;2022-11-20T00:30:46;2.47;;;1.95;;
66118;SDS011;52912;48.564;9.302;2022-11-20T00:33:11;3.65;;;2.40;;
66118;SDS011;52912;48.564;9.302;2022-11-20T00:35:37;3.38;;;2.20;;
66118;SDS011;52912;48.564;9.302;2022-11-20T00:38:02;4.38;;;2.20;;
66118;SDS011;52912;48.564;9.302;2022-11-20T00:40:28;3.05;;;2.10;;
66118;SDS011;52912;48.564;9.302;2022-11-20T00:42:54;5.03;;;2.53;;
66118;SDS011;52912;48.564;9.302;2022-11-20T00:45:20;6.13;;;2.15;;
66118;SDS011;52912;48.564;9.302;2022-11-20T00:47:45;5.35;;;2.40;;
66118;SDS011;52912;48.564;9.302;2022-11-20T00:50:11;3.10;;;2.30;;
66118;SDS011;52912;48.564;9.302;2022-11-20T00:52:36;6.68;;;2.22;;
66118;SDS011;52912;48.564;9.302;2022-11-20T00:55:02;4.57;;;2.63;;
66118;SDS011;52912;48.564;9.302;2022-11-20T00:57:27;5.78;;;2.30;;
66118;SDS011;52912;48.564;9.302;2022-11-20T00:59:54;3.83;;;2.38;;
66118;SDS011;52912;48.564;9.302;2022-11-20T01:02:20;3.47;;;2.45;;
66118;SDS011;52912;48.564;9.302;2022-11-20T01:04:45;3.72;;;2.47;;
66118;SDS011;52912;48.564;9.302;2022-11-20T01:07:11;5.35;;;2.63;;
66118;SDS011;52912;48.564;9.302;2022-11-20T01:09:36;6.45;;;2.90;;
66118;SDS011;52912;48.564;9.302;2022-11-20T01:12:01;4.10;;;2.67;;
66118;SDS011;52912;48.564;9.302;2022-11-20T01:14:27;4.88;;;2.60;;
66118;SDS011;52912;48.564;9.302;2022-11-20T01:16:54;4.07;;;2.67;;
66118;SDS011;52912;48.564;9.302;2022-11-20T01:19:20;5.40;;;2.70;;
66118;SDS011;52912;48.564;9.302;2022-11-20T01:21:48;4.95;;;2.92;;
66118;SDS011;52912;48.564;9.302;2022-11-20T01:24:16;5.90;;;2.90;;
66118;SDS011;52912;48.564;9.302;2022-11-20T01:26:43;6.07;;;3.03;;
66118;SDS011;52912;48.564;9.302;2022-11-20T01:29:10;4.65;;;2.85;;
66118;SDS011;52912;48.564;9.302;2022-11-20T01:34:06;4.87;;;2.77;;
66118;SDS011;52912;48.564;9.302;2022-11-20T01:36:33;6.75;;;2.75;;
66118;SDS011;52912;48.564;9.302;2022-11-20T01:39:01;4.30;;;3.03;;
66118;SDS011;52912;48.564;9.302;2022-11-20T01:41:29;5.93;;;3.13;;
66118;SDS011;52912;48.564;9.302;2022-11-20T01:43:56;4.68;;;2.83;;
66118;SDS011;52912;48.564;9.302;2022-11-20T01:46:21;5.20;;;3.35;;
66118;SDS011;52912;48.564;9.302;2022-11-20T01:48:49;5.10;;;2.90;;
66118;SDS011;52912;48.564;9.302;2022-11-20T01:51:21;4.53;;;3.10;;
66118;SDS011;52912;48.564;9.302;2022-11-20T01:53:50;4.60;;;3.17;;
66118;SDS011;52912;48.564;9.302;2022-11-20T01:56:18;6.65;;;3.40;;
66118;SDS011;52912;48.564;9.302;2022-11-20T01:58:45;5.15;;;3.30;;
66118;SDS011;52912;48.564;9.302;2022-11-20T02:01:15;5.20;;;3.42;;
66118;SDS011;52912;48.564;9.302;2022-11-20T02:03:41;6.80;;;3.40;;
66118;SDS011;52912;48.564;9.302;2022-11-20T02:06:10;8.10;;;3.58;;
66118;SDS011;52912;48.564;9.302;2022-11-20T02:08:40;6.18;;;3.60;;
66118;SDS011;52912;48.564;9.302;2022-11-20T02:11:06;6.68;;;3.63;;
66118;SDS011;52912;48.564;9.302;2022-11-20T02:13:32;4.97;;;3.50;;
66118;SDS011;52912;48.564;9.302;2022-11-20T02:15:58;5.97;;;3.38;;
66118;SDS011;52912;48.564;9.302;2022-11-20T02:18:24;9.40;;;4.40;;
66118;SDS011;52912;48.564;9.302;2022-11-20T02:20:52;6.82;;;3.80;;
66118;SDS011;52912;48.564;9.302;2022-11-20T02:25:49;7.65;;;3.35;;
66118;SDS011;52912;48.564;9.302;2022-11-20T02:28:15;6.03;;;3.75;;
66118;SDS011;52912;48.564;9.302;2022-11-20T02:30:42;6.22;;;3.60;;
66118;SDS011;52912;48.564;9.302;2022-11-20T02:33:08;5.55;;;3.20;;
66118;SDS011;52912;48.564;9.302;2022-11-20T02:35:40;4.95;;;3.42;;
66118;SDS011;52912;48.564;9.302;2022-11-20T02:38:07;4.35;;;3.05;;
66118;SDS011;52912;48.564;9.302;2022-11-20T02:40:33;6.40;;;3.50;;
66118;SDS011;52912;48.564;9.302;2022-11-20T02:43:00;4.50;;;3.20;;
66118;SDS011;52912;48.564;9.302;2022-11-20T02:45:26;4.85;;;2.92;;
66118;SDS011;52912;48.564;9.302;2022-11-20T02:47:51;4.72;;;2.90;;
66118;SDS011;52912;48.564;9.302;2022-11-20T02:50:17;5.05;;;3.10;;
66118;SDS011;52912;48.564;9.302;2022-11-20T02:52:43;4.38;;;3.03;;
66118;SDS011;52912;48.564;9.302;2022-11-20T02:55:09;4.82;;;3.00;;
66118;SDS011;52912;48.564;9.302;2022-11-20T02:57:34;4.05;;;2.70;;
66118;SDS011;52912;48.564;9.302;2022-11-20T03:00:02;4.80;;;2.90;;
66118;SDS011;52912;48.564;9.302;2022-11-20T03:02:29;7.13;;;2.78;;
66118;SDS011;52912;48.564;9.302;2022-11-20T03:04:54;4.15;;;2.60;;
66118;SDS011;52912;48.564;9.302;2022-11-20T03:07:20;5.82;;;2.40;;
66118;SDS011;52912;48.564;9.302;2022-11-20T03:09:45;5.07;;;2.42;;
66118;SDS011;52912;48.564;9.302;2022-11-20T03:12:11;3.90;;;2.58;;
66118;SDS011;52912;48.564;9.302;2022-11-20T03:14:36;4.75;;;2.75;;
66118;SDS011;52912;48.564;9.302;2022-11-20T03:17:03;8.68;;;2.80;;
66118;SDS011;52912;48.564;9.302;2022-11-20T03:19:29;4.15;;;2.50;;
66118;SDS011;52912;48.564;9.302;2022-11-20T03:21:54;3.10;;;2.20;;
66118;SDS011;52912;48.564;9.302;2022-11-20T03:24:20;4.13;;;2.42;;
66118;SDS011;52912;48.564;9.302;2022-11-20T03:26:45;3.17;;;2.08;;
66118;SDS011;52912;48.564;9.302;2022-11-20T03:29:10;5.40;;;2.30;;
66118;SDS011;52912;48.564;9.302;2022-11-20T03:31:37;2.85;;;1.98;;
66118;SDS011;52912;48.564;9.302;2022-11-20T03:34:05;3.42;;;2.20;;
66118;SDS011;52912;48.564;9.302;2022-11-20T03:36:30;3.95;;;2.50;;
66118;SDS011;52912;48.564;9.302;2022-11-20T03:38:56;5.30;;;2.17;;
66118;SDS011;52912;48.564;9.302;2022-11-20T03:41:22;4.22;;;2.22;;
66118;SDS011;52912;48.564;9.302;2022-11-20T03:43:49;3.13;;;1.90;;
66118;SDS011;52912;48.564;9.302;2022-11-20T03:46:15;5.55;;;2.20;;
66118;SDS011;52912;48.564;9.302;2022-11-20T03:48:41;4.45;;;2.03;;
66118;SDS011;52912;48.564;9.302;2022-11-20T03:51:09;1.67;;;1.58;;
66118;SDS011;52912;48.564;9.302;2022-11-20T03:53:36;2.50;;;2.00;;
66118;SDS011;52912;48.564;9.302;2022-11-20T03:56:02;2.30;;;1.90;;
66118;SDS011;52912;48.564;9.302;2022-11-20T03:58:28;2.58;;;1.80;;
66118;SDS011;52912;48.564;9.302;2022-11-20T04:00:53;3.70;;;2.17;;
66118;SDS011;52912;48.564;9.302;2022-11-20T04:03:19;5.93;;;2.10;;
66118;SDS011;52912;48.564;9.302;2022-11-20T04:05:44;4.75;;;2.20;;
66118;SDS011;52912;48.564;9.302;2022-11-20T04:08:11;4.43;;;2.15;;
66118;SDS011;52912;48.564;9.302;2022-11-20T04:10:36;2.72;;;2.00;;
66118;SDS011;52912;48.564;9.302;2022-11-20T04:13:02;3.72;;;2.22;;
66118;SDS011;52912;48.564;9.302;2022-11-20T04:15:27;2.17;;;1.80;;
66118;SDS011;52912;48.564;9.302;2022-11-20T04:17:53;4.32;;;2.00;;
66118;SDS011;52912;48.564;9.302;2022-11-20T04:20:21;4.05;;;2.15;;
66118;SDS011;52912;48.564;9.302;2022-11-20T04:22:47;2.72;;;1.85;;
66118;SDS011;52912;48.564;9.302;2022-11-20T04:25:14;4.53;;;2.22;;
66118;SDS011;52912;48.564;9.302;2022-11-20T04:27:39;5.30;;;2.10;;
66118;SDS011;52912;48.564;9.302;2022-11-20T04:30:05;3.15;;;2.00;;
66118;SDS011;52912;48.564;9.302;2022-11-20T04:32:31;2.30;;;1.77;;
66118;SDS011;52912;48.564;9.302;2022-11-20T04:34:56;3.08;;;1.80;;
66118;SDS011;52912;48.564;9.302;2022-11-20T04:37:22;3.47;;;1.70;;
66118;SDS011;52912;48.564;9.302;2022-11-20T04:39:47;2.67;;;1.63;;
66118;SDS011;52912;48.564;9.302;2022-11-20T04:42:14;3.22;;;1.85;;
66118;SDS011;52912;48.564;9.302;2022-11-20T04:44:39;2.70;;;1.70;;
66118;SDS011;52912;48.564;9.302;2022-11-20T04:47:05;2.47;;;1.70;;
66118;SDS011;52912;48.564;9.302;2022-11-20T04:49:30;2.13;;;1.70;;
66118;SDS011;52912;48.564;9.302;2022-11-20T04:51:56;3.78;;;1.83;;
66118;SDS011;52912;48.564;9.302;2022-11-20T04:54:22;3.15;;;2.13;;
66118;SDS011;52912;48.564;9.302;2022-11-20T04:56:47;1.92;;;1.60;;
66118;SDS011;52912;48.564;9.302;2022-11-20T04:59:14;1.98;;;1.77;;
66118;SDS011;52912;48.564;9.302;2022-11-20T05:01:40;2.83;;;1.67;;
66118;SDS011;52912;48.564;9.302;2022-11-20T05:04:05;4.68;;;1.90;;
66118;SDS011;52912;48.564;9.302;2022-11-20T05:06:31;3.75;;;2.00;;
66118;SDS011;52912;48.564;9.302;2022-11-20T05:08:57;2.72;;;1.58;;
66118;SDS011;52912;48.564;9.302;2022-11-20T05:11:22;2.28;;;1.60;;
66118;SDS011;52912;48.564;9.302;2022-11-20T05:13:48;2.10;;;1.75;;
66118;SDS011;52912;48.564;9.302;2022-11-20T05:16:16;2.20;;;1.70;;
66118;SDS011;52912;48.564;9.302;2022-11-20T05:18:43;2.53;;;1.77;;
66118;SDS011;52912;48.564;9.302;2022-11-20T05:21:09;2.72;;;1.60;;
66118;SDS011;52912;48.564;9.302;2022-11-20T05:23:35;2.17;;;1.58;;
66118;SDS011;52912;48.564;9.302;2022-11-20T05:26:01;2.55;;;1.60;;
66118;SDS011;52912;48.564;9.302;2022-11-20T05:28:28;1.83;;;1.50;;
66118;SDS011;52912;48.564;9.302;2022-11-20T05:30:54;1.67;;;1.40;;
66118;SDS011;52912;48.564;9.302;2022-11-20T05:33:21;1.67;;;1.50;;
66118;SDS011;52912;48.564;9.302;2022-11-20T05:35:47;2.55;;;1.67;;
66118;SDS011;52912;48.564;9.302;2022-11-20T05:38:13;4.35;;;1.95;;
66118;SDS011;52912;48.564;9.302;2022-11-20T05:40:38;3.58;;;1.95;;
66118;SDS011;52912;48.564;9.302;2022-11-20T05:43:04;2.03;;;1.40;;
66118;SDS011;52912;48.564;9.302;2022-11-20T05:45:29;2.08;;;1.50;;
66118;SDS011;52912;48.564;9.302;2022-11-20T05:47:57;3.92;;;1.90;;
66118;SDS011;52912;48.564;9.302;2022-11-20T05:50:24;4.15;;;1.70;;
66118;SDS011;52912;48.564;9.302;2022-11-20T05:52:49;2.65;;;1.60;;
66118;SDS011;52912;48.564;9.302;2022-11-20T05:55:15;2.10;;;1.60;;
66118;SDS011;52912;48.564;9.302;2022-11-20T05:57:40;2.28;;;1.60;;
66118;SDS011;52912;48.564;9.302;2022-11-20T06:00:07;1.95;;;1.67;;
66118;SDS011;52912;48.564;9.302;2022-11-20T06:02:34;2.03;;;1.50;;
66118;SDS011;52912;48.564;9.302;2022-11-20T06:05:00;4.18;;;2.05;;
66118;SDS011;52912;48.564;9.302;2022-11-20T06:07:27;1.58;;;1.40;;
66118;SDS011;52912;48.564;9.302;2022-11-20T06:09:52;2.42;;;1.70;;
66118;SDS011;52912;48.564;9.302;2022-11-20T06:12:17;1.48;;;1.25;;
66118;SDS011;52912;48.564;9.302;2022-11-20T06:14:43;2.25;;;1.40;;
66118;SDS011;52912;48.564;9.302;2022-11-20T06:17:08;1.80;;;1.40;;
66118;SDS011;52912;48.564;9.302;2022-11-20T06:19:34;2.67;;;1.55;;
66118;SDS011;52912;48.564;9.302;2022-11-20T06:21:59;1.63;;;1.35;;
66118;SDS011;52912;48.564;9.302;2022-11-20T06:24:26;1.92;;;1.60;;
66118;SDS011;52912;48.564;9.302;2022-11-20T06:26:51;1.65;;;1.48;;
66118;SDS011;52912;48.564;9.302;2022-11-20T06:29:17;3.20;;;1.67;;
66118;SDS011;52912;48.564;9.302;2022-11-20T06:31:42;3.15;;;1.70;;
66118;SDS011;52912;48.564;9.302;2022-11-20T06:34:08;1.77;;;1.42;;
66118;SDS011;52912;48.564;9.302;2022-11-20T06:36:33;2.95;;;1.80;;
66118;SDS011;52912;48.564;9.302;2022-11-20T06:38:59;3.13;;;1.40;;
66118;SDS011;52912;48.564;9.302;2022-11-20T06:41:26;2.60;;;1.80;;
66118;SDS011;52912;48.564;9.302;2022-11-20T06:43:52;2.70;;;1.83;;
66118;SDS011;52912;48.564;9.302;2022-11-20T06:46:18;3.28;;;1.98;;
66118;SDS011;52912;48.564;9.302;2022-11-20T06:48:44;5.10;;;1.80;;
66118;SDS011;52912;48.564;9.302;2022-11-20T06:51:10;3.28;;;1.60;;
66118;SDS011;52912;48.564;9.302;2022-11-20T06:53:36;2.00;;;1.50;;
66118;SDS011;52912;48.564;9.302;2022-11-20T06:56:02;5.07;;;1.80;;
66118;SDS011;52912;48.564;9.302;2022-11-20T06:58:31;4.05;;;1.70;;
66118;SDS011;52912;48.564;9.302;2022-11-20T07:00:58;2.78;;;1.60;;
66118;SDS011;52912;48.564;9.302;2022-11-20T07:03:23;3.25;;;1.80;;
66118;SDS011;52912;48.564;9.302;2022-11-20T07:05:49;2.85;;;1.80;;
66118;SDS011;52912;48.564;9.302;2022-11-20T07:08:14;2.60;;;1.52;;
66118;SDS011;52912;48.564;9.302;2022-11-20T07:10:40;2.20;;;1.45;;
66118;SDS011;52912;48.564;9.302;2022-11-20T07:13:05;4.88;;;2.10;;
66118;SDS011;52912;48.564;9.302;2022-11-20T07:15:32;3.25;;;1.77;;
66118;SDS011;52912;48.564;9.302;2022-11-20T07:17:58;3.45;;;1.38;;
66118;SDS011;52912;48.564;9.302;2022-11-20T07:20:23;2.85;;;1.70;;
66118;SDS011;52912;48.564;9.302;2022-11-20T07:22:52;2.13;;;1.70;;
66118;SDS011;52912;48.564;9.302;2022-11-20T07:25:18;2.63;;;1.50;;
66118;SDS011;52912;48.564;9.302;2022-11-20T07:27:44;7.70;;;1.98;;
66118;SDS011;52912;48.564;9.302;2022-11-20T07:30:10;9.88;;;1.92;;
66118;SDS011;52912;48.564;9.302;2022-11-20T07:32:37;2.55;;;1.80;;
66118;SDS011;52912;48.564;9.302;2022-11-20T07:35:03;5.45;;;1.80;;
66118;SDS011;52912;48.564;9.302;2022-11-20T07:37:28;2.25;;;1.58;;
66118;SDS011;52912;48.564;9.302;2022-11-20T07:39:54;3.85;;;1.50;;
66118;SDS011;52912;48.564;9.302;2022-11-20T07:42:19;2.40;;;1.60;;
66118;SDS011;52912;48.564;9.302;2022-11-20T07:44:45;3.20;;;1.45;;
66118;SDS011;52912;48.564;9.302;2022-11-20T07:47:10;3.58;;;1.48;;
66118;SDS011;52912;48.564;9.302;2022-11-20T07:49:37;2.22;;;1.50;;
66118;SDS011;52912;48.564;9.302;2022-11-20T07:52:02;2.45;;;1.50;;
66118;SDS011;52912;48.564;9.302;2022-11-20T07:54:28;2.83;;;1.58;;
66118;SDS011;52912;48.564;9.302;2022-11-20T07:56:53;3.10;;;1.70;;
66118;SDS011;52912;48.564;9.302;2022-11-20T07:59:19;3.53;;;1.55;;
66118;SDS011;52912;48.564;9.302;2022-11-20T08:01:44;2.22;;;1.50;;
66118;SDS011;52912;48.564;9.302;2022-11-20T08:04:10;2.55;;;1.70;;
66118;SDS011;52912;48.564;9.302;2022-11-20T08:06:37;2.33;;;1.90;;
66118;SDS011;52912;48.564;9.302;2022-11-20T08:09:02;2.22;;;1.23;;
66118;SDS011;52912;48.564;9.302;2022-11-20T08:11:28;2.25;;;1.50;;
66118;SDS011;52912;48.564;9.302;2022-11-20T08:13:53;11.10;;;4.25;;
66118;SDS011;52912;48.564;9.302;2022-11-20T08:16:19;2.97;;;1.65;;
66118;SDS011;52912;48.564;9.302;2022-11-20T08:18:44;2.80;;;1.40;;
66118;SDS011;52912;48.564;9.302;2022-11-20T08:21:09;1.63;;;1.30;;
66118;SDS011;52912;48.564;9.302;2022-11-20T08:23:36;1.30;;;1.20;;
66118;SDS011;52912;48.564;9.302;2022-11-20T08:26:02;2.63;;;1.50;;
66118;SDS011;52912;48.564;9.302;2022-11-20T08:28:27;1.63;;;1.30;;
66118;SDS011;52912;48.564;9.302;2022-11-20T08:30:57;1.42;;;1.30;;
66118;SDS011;52912;48.564;9.302;2022-11-20T08:33:23;1.20;;;1.08;;
66118;SDS011;52912;48.564;9.302;2022-11-20T08:35:48;1.48;;;1.30;;
66118;SDS011;52912;48.564;9.302;2022-11-20T08:38:13;3.35;;;1.30;;
66118;SDS011;52912;48.564;9.302;2022-11-20T08:40:40;2.47;;;1.33;;
66118;SDS011;52912;48.564;9.302;2022-11-20T08:43:06;1.58;;;1.20;;
66118;SDS011;52912;48.564;9.302;2022-11-20T08:45:31;1.48;;;1.25;;
66118;SDS011;52912;48.564;9.302;2022-11-20T08:47:59;2.63;;;1.50;;
66118;SDS011;52912;48.564;9.302;2022-11-20T08:50:25;2.78;;;1.67;;
66118;SDS011;52912;48.564;9.302;2022-11-20T08:52:50;3.40;;;1.80;;
66118;SDS011;52912;48.564;9.302;2022-11-20T08:55:15;4.85;;;2.10;;
66118;SDS011;52912;48.564;9.302;2022-11-20T08:57:42;2.25;;;1.73;;
66118;SDS011;52912;48.564;9.302;2022-11-20T09:00:09;6.53;;;2.10;;
66118;SDS011;52912;48.564;9.302;2022-11-20T09:02:35;2.75;;;1.67;;
66118;SDS011;52912;48.564;9.302;2022-11-20T09:05:01;2.88;;;1.80;;
66118;SDS011;52912;48.564;9.302;2022-11-20T09:07:26;3.05;;;1.92;;
66118;SDS011;52912;48.564;9.302;2022-11-20T09:09:52;3.08;;;2.00;;
66118;SDS011;52912;48.564;9.302;2022-11-20T09:12:18;2.78;;;1.67;;
66118;SDS011;52912;48.564;9.302;2022-11-20T09:14:44;3.00;;;1.60;;
66118;SDS011;52912;48.564;9.302;2022-11-20T09:17:10;3.70;;;1.92;;
66118;SDS011;52912;48.564;9.302;2022-11-20T09:19:36;2.72;;;1.90;;
66118;SDS011;52912;48.564;9.302;2022-11-20T09:22:01;3.55;;;1.70;;
66118;SDS011;52912;48.564;9.302;2022-11-20T09:24:26;3.85;;;1.90;;
66118;SDS011;52912;48.564;9.302;2022-11-20T09:26:52;3.10;;;1.80;;
66118;SDS011;52912;48.564;9.302;2022-11-20T09:29:17;2.78;;;1.92;;
66118;SDS011;52912;48.564;9.302;2022-11-20T09:31:47;6.38;;;1.65;;
66118;SDS011;52912;48.564;9.302;2022-11-20T09:34:12;3.67;;;2.15;;
66118;SDS011;52912;48.564;9.302;2022-11-20T09:36:37;4.13;;;2.00;;
66118;SDS011;52912;48.564;9.302;2022-11-20T09:39:03;3.55;;;1.60;;
66118;SDS011;52912;48.564;9.302;2022-11-20T09:41:38;6.85;;;2.65;;
66118;SDS011;52912;48.564;9.302;2022-11-20T09:44:30;11.80;;;4.28;;
66118;SDS011;52912;48.564;9.302;2022-11-20T09:47:07;2.88;;;1.65;;
66118;SDS011;52912;48.564;9.302;2022-11-20T09:49:39;4.00;;;2.20;;
66118;SDS011;52912;48.564;9.302;2022-11-20T09:52:21;4.72;;;2.40;;
66118;SDS011;52912;48.564;9.302;2022-11-20T09:54:54;5.22;;;2.15;;
66118;SDS011;52912;48.564;9.302;2022-11-20T09:57:21;3.45;;;1.92;;
66118;SDS011;52912;48.564;9.302;2022-11-20T09:59:51;4.95;;;2.40;;
66118;SDS011;52912;48.564;9.302;2022-11-20T10:02:26;3.13;;;1.65;;
66118;SDS011;52912;48.564;9.302;2022-11-20T10:04:55;5.18;;;2.30;;
66118;SDS011;52912;48.564;9.302;2022-11-20T10:07:27;4.50;;;1.95;;
66118;SDS011;52912;48.564;9.302;2022-11-20T10:09:57;2.83;;;1.70;;
66118;SDS011;52912;48.564;9.302;2022-11-20T10:12:25;4.05;;;2.15;;
66118;SDS011;52912;48.564;9.302;2022-11-20T10:15:02;4.47;;;1.88;;
66118;SDS011;52912;48.564;9.302;2022-11-20T10:17:44;3.20;;;1.88;;
66118;SDS011;52912;48.564;9.302;2022-11-20T10:20:21;3.70;;;2.15;;
66118;SDS011;52912;48.564;9.302;2022-11-20T10:22:59;2.03;;;1.58;;
66118;SDS011;52912;48.564;9.302;2022-11-20T10:25:39;4.28;;;1.95;;
66118;SDS011;52912;48.564;9.302;2022-11-20T10:28:18;4.13;;;2.33;;
66118;SDS011;52912;48.564;9.302;2022-11-20T10:30:51;4.00;;;2.20;;
66118;SDS011;52912;48.564;9.302;2022-11-20T10:33:23;2.53;;;1.65;;
66118;SDS011;52912;48.564;9.302;2022-11-20T10:35:52;2.60;;;1.65;;
66118;SDS011;52912;48.564;9.302;2022-11-20T10:38:25;1.67;;;1.40;;
66118;SDS011;52912;48.564;9.302;2022-11-20T10:40:56;3.90;;;2.10;;
66118;SDS011;52912;48.564;9.302;2022-11-20T10:43:27;2.63;;;1.80;;
66118;SDS011;52912;48.564;9.302;2022-11-20T10:45:57;9.88;;;4.13;;
66118;SDS011;52912;48.564;9.302;2022-11-20T10:48:28;26.42;;;10.73;;
66118;SDS011;52912;48.564;9.302;2022-11-20T10:51:10;8.88;;;2.55;;
66118;SDS011;52912;48.564;9.302;2022-11-20T10:53:43;3.80;;;2.60;;
66118;SDS011;52912;48.564;9.302;2022-11-20T10:56:16;4.82;;;3.00;;
66118;SDS011;52912;48.564;9.302;2022-11-20T10:58:45;3.65;;;2.60;;
66118;SDS011;52912;48.564;9.302;2022-11-20T11:01:21;2.78;;;1.92;;
66118;SDS011;52912;48.564;9.302;2022-11-20T11:03:48;1.95;;;1.27;;
66118;SDS011;52912;48.564;9.302;2022-11-20T11:06:17;2.75;;;1.77;;
66118;SDS011;52912;48.564;9.302;2022-11-20T11:08:49;3.63;;;1.75;;
66118;SDS011;52912;48.564;9.302;2022-11-20T11:11:20;3.42;;;2.08;;
66118;SDS011;52912;48.564;9.302;2022-11-20T11:13:47;9.02;;;3.08;;
66118;SDS011;52912;48.564;9.302;2022-11-20T11:16:17;16.60;;;5.70;;
66118;SDS011;52912;48.564;9.302;2022-11-20T11:18:46;23.15;;;6.43;;
66118;SDS011;52912;48.564;9.302;2022-11-20T11:21:13;6.20;;;2.10;;
66118;SDS011;52912;48.564;9.302;2022-11-20T11:23:44;3.42;;;1.83;;
66118;SDS011;52912;48.564;9.302;2022-11-20T11:26:18;28.85;;;6.45;;
66118;SDS011;52912;48.564;9.302;2022-11-20T11:28:52;22.70;;;5.72;;
66118;SDS011;52912;48.564;9.302;2022-11-20T11:31:21;23.63;;;5.90;;
66118;SDS011;52912;48.564;9.302;2022-11-20T11:33:48;26.42;;;6.82;;
66118;SDS011;52912;48.564;9.302;2022-11-20T11:36:17;7.93;;;3.78;;
66118;SDS011;52912;48.564;9.302;2022-11-20T11:38:48;17.38;;;8.48;;
66118;SDS011;52912;48.564;9.302;2022-11-20T11:41:17;25.08;;;15.98;;
66118;SDS011;52912;48.564;9.302;2022-11-20T11:43:50;13.27;;;3.97;;
66118;SDS011;52912;48.564;9.302;2022-11-20T11:46:30;10.68;;;3.20;;
66118;SDS011;52912;48.564;9.302;2022-11-20T11:48:57;10.38;;;4.13;;
66118;SDS011;52912;48.564;9.302;2022-11-20T11:51:27;8.30;;;3.13;;
66118;SDS011;52912;48.564;9.302;2022-11-20T11:53:57;13.18;;;4.32;;
66118;SDS011;52912;48.564;9.302;2022-11-20T11:56:24;1.80;;;1.40;;
66118;SDS011;52912;48.564;9.302;2022-11-20T11:58:51;6.53;;;3.22;;
66118;SDS011;52912;48.564;9.302;2022-11-20T12:01:21;3.65;;;2.33;;
66118;SDS011;52912;48.564;9.302;2022-11-20T12:03:55;8.40;;;4.70;;
66118;SDS011;52912;48.564;9.302;2022-11-20T12:06:29;9.57;;;4.78;;
66118;SDS011;52912;48.564;9.302;2022-11-20T12:08:57;18.88;;;10.07;;
66118;SDS011;52912;48.564;9.302;2022-11-20T12:11:29;7.35;;;3.80;;
66118;SDS011;52912;48.564;9.302;2022-11-20T12:13:58;10.90;;;6.72;;
66118;SDS011;52912;48.564;9.302;2022-11-20T12:16:27;7.18;;;4.00;;
66118;SDS011;52912;48.564;9.302;2022-11-20T12:18:55;7.10;;;4.28;;
66118;SDS011;52912;48.564;9.302;2022-11-20T12:21:24;2.47;;;1.75;;
66118;SDS011;52912;48.564;9.302;2022-11-20T12:24:04;4.38;;;2.97;;
66118;SDS011;52912;48.564;9.302;2022-11-20T12:26:42;5.15;;;3.53;;
66118;SDS011;52912;48.564;9.302;2022-11-20T12:29:21;4.35;;;1.90;;
66118;SDS011;52912;48.564;9.302;2022-11-20T12:32:04;6.68;;;2.88;;
66118;SDS011;52912;48.564;9.302;2022-11-20T12:34:45;3.40;;;2.38;;
66118;SDS011;52912;48.564;9.302;2022-11-20T12:37:22;7.18;;;2.50;;
66118;SDS011;52912;48.564;9.302;2022-11-20T12:39:58;5.38;;;2.30;;
66118;SDS011;52912;48.564;9.302;2022-11-20T12:42:40;2.67;;;1.50;;
66118;SDS011;52912;48.564;9.302;2022-11-20T12:48:28;3.40;;;2.33;;
66118;SDS011;52912;48.564;9.302;2022-11-20T12:51:14;3.53;;;1.92;;
66118;SDS011;52912;48.564;9.302;2022-11-20T12:53:54;4.50;;;1.38;;
66118;SDS011;52912;48.564;9.302;2022-11-20T12:56:31;2.70;;;1.65;;
66118;SDS011;52912;48.564;9.302;2022-11-20T12:59:07;2.08;;;1.45;;
66118;SDS011;52912;48.564;9.302;2022-11-20T13:01:46;3.38;;;1.80;;
66118;SDS011;52912;48.564;9.302;2022-11-20T13:04:17;1.70;;;1.00;;
66118;SDS011;52912;48.564;9.302;2022-11-20T13:06:49;3.38;;;1.30;;
66118;SDS011;52912;48.564;9.302;2022-11-20T13:09:17;2.25;;;1.17;;
66118;SDS011;52912;48.564;9.302;2022-11-20T13:11:47;2.15;;;1.35;;
66118;SDS011;52912;48.564;9.302;2022-11-20T13:14:21;1.42;;;0.95;;
66118;SDS011;52912;48.564;9.302;2022-11-20T13:16:57;1.65;;;1.38;;
66118;SDS011;52912;48.564;9.302;2022-11-20T13:19:25;2.15;;;1.20;;
66118;SDS011;52912;48.564;9.302;2022-11-20T13:21:51;2.08;;;1.30;;
66118;SDS011;52912;48.564;9.302;2022-11-20T13:24:22;1.85;;;1.15;;
66118;SDS011;52912;48.564;9.302;2022-11-20T13:26:59;1.50;;;1.10;;
66118;SDS011;52912;48.564;9.302;2022-11-20T13:29:25;3.45;;;1.60;;
66118;SDS011;52912;48.564;9.302;2022-11-20T13:32:00;1.75;;;1.08;;
66118;SDS011;52912;48.564;9.302;2022-11-20T13:34:28;3.10;;;1.80;;
66118;SDS011;52912;48.564;9.302;2022-11-20T13:36:55;5.22;;;2.30;;
66118;SDS011;52912;48.564;9.302;2022-11-20T13:39:26;3.22;;;1.63;;
66118;SDS011;52912;48.564;9.302;2022-11-20T13:41:54;2.08;;;1.20;;
66118;SDS011;52912;48.564;9.302;2022-11-20T13:44:23;3.63;;;2.10;;
66118;SDS011;52912;48.564;9.302;2022-11-20T13:46:50;2.85;;;1.75;;
66118;SDS011;52912;48.564;9.302;2022-11-20T13:49:17;7.35;;;3.58;;
66118;SDS011;52912;48.564;9.302;2022-11-20T13:51:46;8.90;;;4.88;;
66118;SDS011;52912;48.564;9.302;2022-11-20T13:57:20;4.38;;;2.35;;
66118;SDS011;52912;48.564;9.302;2022-11-20T14:00:03;3.55;;;1.95;;
66118;SDS011;52912;48.564;9.302;2022-11-20T14:02:34;3.63;;;2.08;;
66118;SDS011;52912;48.564;9.302;2022-11-20T14:05:00;3.00;;;1.30;;
66118;SDS011;52912;48.564;9.302;2022-11-20T14:07:27;3.70;;;1.40;;
66118;SDS011;52912;48.564;9.302;2022-11-20T14:10:01;2.97;;;1.80;;
66118;SDS011;52912;48.564;9.302;2022-11-20T14:12:27;6.43;;;2.25;;
66118;SDS011;52912;48.564;9.302;2022-11-20T14:14:54;5.32;;;2.20;;
66118;SDS011;52912;48.564;9.302;2022-11-20T14:17:20;4.03;;;2.40;;
66118;SDS011;52912;48.564;9.302;2022-11-20T14:19:48;5.50;;;3.20;;
66118;SDS011;52912;48.564;9.302;2022-11-20T14:22:19;5.25;;;2.50;;
66118;SDS011;52912;48.564;9.302;2022-11-20T14:24:46;6.60;;;3.47;;
66118;SDS011;52912;48.564;9.302;2022-11-20T14:27:15;4.35;;;2.15;;
66118;SDS011;52912;48.564;9.302;2022-11-20T14:29:42;6.00;;;2.90;;
66118;SDS011;52912;48.564;9.302;2022-11-20T14:32:10;5.70;;;2.20;;
66118;SDS011;52912;48.564;9.302;2022-11-20T14:34:40;7.78;;;3.38;;
66118;SDS011;52912;48.564;9.302;2022-11-20T14:37:10;7.30;;;3.20;;
66118;SDS011;52912;48.564;9.302;2022-11-20T14:39:40;3.15;;;1.67;;
66118;SDS011;52912;48.564;9.302;2022-11-20T14:42:12;4.82;;;2.20;;
66118;SDS011;52912;48.564;9.302;2022-11-20T14:44:41;4.43;;;1.63;;
66118;SDS011;52912;48.564;9.302;2022-11-20T14:47:08;2.67;;;1.40;;
66118;SDS011;52912;48.564;9.302;2022-11-20T14:49:37;3.90;;;2.10;;
66118;SDS011;52912;48.564;9.302;2022-11-20T14:52:10;2.80;;;1.75;;
66118;SDS011;52912;48.564;9.302;2022-11-20T14:54:43;3.15;;;1.67;;
66118;SDS011;52912;48.564;9.302;2022-11-20T14:57:20;2.83;;;1.95;;
66118;SDS011;52912;48.564;9.302;2022-11-20T14:59:48;3.35;;;2.05;;
66118;SDS011;52912;48.564;9.302;2022-11-20T15:02:14;3.25;;;2.05;;
66118;SDS011;52912;48.564;9.302;2022-11-20T15:04:44;2.60;;;1.90;;